createdAt,value
2023-05-24T00:01:54.108Z,5.20
2023-05-24T00:04:30.697Z,5.50
2023-05-24T00:07:07.332Z,5.80
2023-05-24T00:09:40.476Z,5.20
2023-05-24T00:12:33.204Z,5.00
2023-05-24T00:15:54.007Z,5.30
2023-05-24T00:18:49.809Z,5.40
2023-05-24T00:21:37.583Z,5.30
2023-05-24T00:24:53.454Z,5.40
2023-05-24T00:27:27.572Z,5.20
2023-05-24T00:34:03.912Z,6.00
2023-05-24T00:36:53.412Z,5.90
2023-05-24T00:39:52.993Z,5.90
2023-05-24T00:42:40.666Z,6.20
2023-05-24T00:45:45.749Z,5.90
2023-05-24T00:48:56.566Z,5.70
2023-05-24T00:51:57.650Z,5.70
2023-05-24T00:54:48.847Z,6.10
2023-05-24T00:57:26.253Z,5.50
2023-05-24T01:00:16.079Z,5.90
2023-05-24T01:03:47.850Z,5.70
2023-05-24T01:06:54.929Z,5.80
2023-05-24T01:10:21.953Z,5.80
2023-05-24T01:13:36.898Z,5.80
2023-05-24T01:17:14.957Z,5.70
2023-05-24T01:20:47.358Z,6.70
2023-05-24T01:24:31.341Z,6.70
2023-05-24T01:31:02.888Z,6.90
2023-05-24T01:34:23.510Z,6.40
2023-05-24T01:37:44.533Z,6.70
2023-05-24T01:41:08.906Z,7.10
2023-05-24T01:44:33.048Z,7.00
2023-05-24T01:50:19.489Z,7.10
2023-05-24T01:53:46.892Z,6.60
2023-05-24T01:57:05.907Z,6.40
2023-05-24T02:00:19.291Z,6.20
2023-05-24T02:03:17.590Z,6.20
2023-05-24T02:06:29.048Z,7.00
2023-05-24T02:09:49.259Z,6.30
2023-05-24T02:13:08.910Z,6.60
2023-05-24T02:19:34.444Z,6.40
2023-05-24T02:22:52.527Z,6.00
2023-05-24T02:26:01.088Z,6.10
2023-05-24T02:29:20.945Z,6.40
2023-05-24T02:32:36.956Z,6.40
2023-05-24T02:35:59.464Z,6.20
2023-05-24T02:39:00.390Z,6.00
2023-05-24T02:42:04.572Z,6.50
2023-05-24T02:45:24.926Z,6.00
2023-05-24T02:48:51.804Z,6.80
2023-05-24T02:52:11.204Z,6.80
2023-05-24T02:55:22.472Z,6.90
2023-05-24T02:58:32.575Z,6.30
2023-05-24T03:02:58.203Z,6.60
2023-05-24T03:06:31.898Z,6.40
2023-05-24T03:09:41.611Z,6.40
2023-05-24T03:13:12.507Z,6.80
2023-05-24T03:16:42.910Z,7.90
2023-05-24T03:19:48.895Z,6.50
2023-05-24T03:23:06.288Z,6.60
2023-05-24T03:26:27.618Z,8.00
2023-05-24T03:29:41.017Z,7.60
2023-05-24T03:34:17.877Z,6.50
2023-05-24T03:37:27.145Z,10.20
2023-05-24T03:40:46.012Z,8.30
2023-05-24T03:47:35.745Z,7.60
2023-05-24T03:54:01.606Z,6.20
2023-05-24T03:57:23.013Z,7.20
2023-05-24T04:00:58.015Z,7.50
2023-05-24T04:03:57.048Z,7.10
2023-05-24T04:06:58.586Z,7.20
2023-05-24T04:10:21.771Z,6.30
2023-05-24T04:13:35.835Z,7.10
2023-05-24T04:17:16.115Z,6.50
2023-05-24T04:20:52.148Z,7.30
2023-05-24T04:24:21.947Z,7.90
2023-05-24T04:27:33.812Z,7.30
2023-05-24T04:30:52.926Z,7.70
2023-05-24T04:34:17.862Z,6.80
2023-05-24T04:37:40.897Z,7.40
2023-05-24T04:40:59.995Z,7.20
2023-05-24T04:44:17.924Z,7.10
2023-05-24T04:48:10.230Z,7.40
2023-05-24T04:50:58.168Z,9.90
2023-05-24T04:53:58.312Z,8.30
2023-05-24T04:56:56.185Z,7.50
2023-05-24T05:00:01.835Z,7.50
2023-05-24T05:03:16.595Z,7.80
2023-05-24T05:06:47.251Z,7.90
2023-05-24T05:09:51.144Z,7.30
2023-05-24T05:13:20.114Z,7.20
2023-05-24T05:16:44.110Z,7.60
2023-05-24T05:19:38.560Z,7.90
2023-05-24T05:22:41.148Z,8.70
2023-05-24T05:25:39.260Z,7.80
2023-05-24T05:28:52.056Z,7.50
2023-05-24T05:32:14.244Z,7.50
2023-05-24T05:35:42.043Z,7.60
2023-05-24T05:38:52.025Z,6.80
2023-05-24T05:42:10.078Z,7.20
2023-05-24T05:45:06.935Z,8.40
2023-05-24T05:48:10.142Z,7.70
2023-05-24T05:51:43.123Z,7.30
2023-05-24T05:55:12.000Z,12.10
2023-05-24T05:58:16.529Z,9.10
2023-05-24T06:01:25.052Z,7.60
2023-05-24T06:04:46.204Z,7.40
2023-05-24T06:07:49.931Z,8.10
2023-05-24T06:10:36.246Z,6.70
2023-05-24T06:15:37.235Z,9.90
2023-05-24T06:18:57.225Z,7.10
2023-05-24T06:21:48.474Z,7.50
2023-05-24T06:24:36.403Z,6.90
2023-05-24T06:28:05.503Z,6.90
2023-05-24T06:31:17.680Z,7.80
2023-05-24T06:34:04.584Z,7.00
2023-05-24T06:36:43.283Z,6.60
2023-05-24T06:39:21.427Z,6.30
2023-05-24T06:41:52.403Z,6.90
2023-05-24T06:44:35.551Z,7.10
2023-05-24T06:47:09.909Z,6.60
2023-05-24T06:49:41.992Z,6.30
2023-05-24T06:52:19.891Z,6.60
2023-05-24T06:55:12.205Z,6.00
2023-05-24T06:58:23.761Z,6.50
2023-05-24T07:01:42.098Z,6.70
2023-05-24T07:04:51.086Z,6.70
2023-05-24T07:07:53.851Z,11.50
2023-05-24T07:10:24.641Z,9.50
2023-05-24T07:12:59.092Z,7.00
2023-05-24T07:15:34.005Z,6.80
2023-05-24T07:18:13.432Z,6.50
2023-05-24T07:20:46.654Z,6.50
2023-05-24T07:23:17.990Z,6.50
2023-05-24T07:25:48.555Z,6.40
2023-05-24T07:28:22.517Z,6.90
2023-05-24T07:31:19.235Z,7.00
2023-05-24T07:34:25.147Z,7.80
2023-05-24T07:37:25.153Z,7.00
2023-05-24T07:40:22.464Z,7.00
2023-05-24T07:42:53.345Z,6.90
2023-05-24T07:45:50.288Z,6.90
2023-05-24T07:48:46.622Z,7.40
2023-05-24T07:51:21.477Z,7.10
2023-05-24T07:54:12.191Z,7.40
2023-05-24T07:57:45.163Z,7.00
2023-05-24T08:00:40.200Z,7.00
2023-05-24T08:03:26.433Z,7.60
2023-05-24T08:06:08.103Z,7.30
2023-05-24T08:15:38.988Z,7.90
2023-05-24T08:19:09.892Z,6.90
2023-05-24T08:22:40.988Z,6.80
2023-05-24T08:26:10.822Z,14.40
2023-05-24T08:29:25.820Z,6.70
2023-05-24T08:32:58.444Z,6.20
2023-05-24T08:36:42.814Z,6.40
2023-05-24T08:40:04.889Z,6.20
2023-05-24T08:43:26.866Z,6.10
2023-05-24T08:46:53.842Z,7.00
2023-05-24T08:49:44.549Z,6.20
2023-05-24T08:52:55.877Z,6.00
2023-05-24T08:56:08.743Z,6.20
2023-05-24T08:59:12.897Z,6.00
2023-05-24T09:02:22.306Z,6.70
2023-05-24T09:05:46.627Z,6.50
2023-05-24T09:09:13.742Z,6.00
2023-05-24T09:12:49.906Z,6.20
2023-05-24T09:16:28.856Z,5.90
2023-05-24T09:19:48.927Z,6.00
2023-05-24T09:23:16.856Z,5.80
2023-05-24T09:26:49.960Z,6.00
2023-05-24T09:30:20.692Z,5.90
2023-05-24T09:33:48.823Z,5.80
2023-05-24T09:37:18.092Z,5.50
2023-05-24T09:40:39.954Z,5.70
2023-05-24T09:44:01.492Z,5.10
2023-05-24T09:47:05.001Z,6.20
2023-05-24T09:50:27.964Z,5.00
2023-05-24T09:53:27.192Z,8.80
2023-05-24T09:56:00.908Z,4.90
2023-05-24T09:58:34.434Z,4.60
2023-05-24T10:01:12.959Z,4.70
2023-05-24T10:04:04.796Z,3.90
2023-05-24T10:06:43.682Z,3.80
2023-05-24T10:09:14.633Z,3.80
2023-05-24T10:11:48.285Z,4.20
2023-05-24T10:14:36.646Z,4.20
2023-05-24T10:17:35.511Z,3.40
2023-05-24T10:24:39.760Z,5.20
2023-05-24T10:27:40.820Z,4.00
2023-05-24T10:34:39.567Z,3.80
2023-05-24T10:37:12.712Z,4.20
2023-05-24T10:39:51.656Z,4.00
2023-05-24T10:42:25.957Z,3.90
2023-05-24T10:44:59.370Z,3.90
2023-05-24T10:47:30.956Z,4.30
2023-05-24T10:50:08.178Z,4.10
2023-05-24T10:52:40.543Z,4.40
2023-05-24T10:55:14.848Z,4.00
2023-05-24T10:57:46.103Z,3.70
2023-05-24T11:03:06.506Z,3.80
2023-05-24T11:05:51.982Z,4.70
2023-05-24T11:08:45.566Z,3.80
2023-05-24T11:11:26.773Z,4.00
2023-05-24T11:13:59.475Z,3.70
2023-05-24T11:22:35.440Z,3.80
2023-05-24T11:25:11.034Z,3.70
2023-05-24T11:27:49.556Z,4.30
2023-05-24T11:30:24.539Z,3.70
2023-05-24T11:32:55.430Z,5.10
2023-05-24T11:35:33.524Z,3.50
2023-05-24T11:38:06.966Z,3.50
2023-05-24T11:40:46.871Z,3.90
2023-05-24T11:43:32.309Z,3.90
2023-05-24T11:46:03.520Z,3.60
2023-05-24T11:48:38.696Z,3.60
2023-05-24T11:51:09.874Z,4.10
2023-05-24T11:53:43.770Z,3.20
2023-05-24T11:56:14.873Z,3.40
2023-05-24T11:58:52.568Z,3.30
2023-05-24T12:01:28.718Z,3.70
2023-05-24T12:03:59.327Z,11.30
2023-05-24T12:06:38.160Z,3.60
2023-05-24T12:09:16.063Z,3.20
2023-05-24T12:11:50.529Z,3.50
2023-05-24T12:14:36.501Z,4.00
2023-05-24T12:17:07.487Z,4.40
2023-05-24T12:19:40.701Z,3.70
2023-05-24T12:22:13.815Z,3.50
2023-05-24T12:24:45.756Z,3.50
2023-05-24T12:27:17.579Z,3.30
2023-05-24T12:29:49.925Z,12.20
2023-05-24T12:32:24.380Z,3.80
2023-05-24T12:34:55.702Z,8.40
2023-05-24T12:37:36.663Z,3.00
2023-05-24T12:40:24.011Z,3.90
2023-05-24T12:43:01.010Z,3.70
2023-05-24T12:45:33.962Z,3.10
2023-05-24T12:48:05.517Z,3.50
2023-05-24T12:50:36.445Z,3.30
2023-05-24T12:53:10.944Z,3.70
2023-05-24T12:55:42.017Z,7.30
2023-05-24T12:58:17.581Z,4.10
2023-05-24T13:00:50.688Z,3.80
2023-05-24T13:03:21.925Z,3.50
2023-05-24T13:05:53.174Z,4.00
2023-05-24T13:08:30.631Z,3.60
2023-05-24T13:11:06.039Z,3.90
2023-05-24T13:13:38.701Z,3.70
2023-05-24T13:16:11.285Z,3.50
2023-05-24T13:18:42.285Z,3.90
2023-05-24T13:21:12.994Z,3.70
2023-05-24T13:23:45.823Z,3.70
2023-05-24T13:26:17.239Z,4.60
2023-05-24T13:29:08.081Z,3.70
2023-05-24T13:31:39.882Z,3.70
2023-05-24T13:34:13.514Z,3.50
2023-05-24T13:36:45.591Z,3.60
2023-05-24T13:39:16.818Z,3.40
2023-05-24T13:41:48.054Z,4.40
2023-05-24T13:44:18.697Z,4.40
2023-05-24T13:46:49.942Z,4.10
2023-05-24T13:49:22.415Z,10.80
2023-05-24T13:51:57.242Z,4.10
2023-05-24T13:54:32.602Z,3.80
2023-05-24T13:57:07.088Z,4.10
2023-05-24T13:59:38.680Z,3.80
2023-05-24T14:02:13.190Z,3.40
2023-05-24T14:04:47.034Z,3.60
2023-05-24T14:07:24.986Z,8.90
2023-05-24T14:09:57.051Z,3.60
2023-05-24T14:12:27.828Z,3.90
2023-05-24T14:15:29.649Z,3.80
2023-05-24T14:21:55.894Z,3.60
2023-05-24T14:24:59.703Z,3.90
2023-05-24T14:28:08.975Z,6.80
2023-05-24T14:30:42.866Z,4.10
2023-05-24T14:33:43.866Z,4.30
2023-05-24T14:37:06.741Z,4.30
2023-05-24T14:40:38.114Z,4.00
2023-05-24T14:43:57.459Z,4.20
2023-05-24T14:47:44.672Z,4.00
2023-05-24T14:51:09.794Z,4.20
2023-05-24T14:55:29.578Z,9.90
2023-05-24T14:58:48.081Z,5.00
2023-05-24T15:01:46.538Z,4.30
2023-05-24T15:04:24.634Z,5.70
2023-05-24T15:07:10.618Z,4.00
2023-05-24T15:10:03.700Z,4.20
2023-05-24T15:13:21.704Z,4.10
2023-05-24T15:19:39.478Z,4.60
2023-05-24T15:22:43.337Z,5.80
2023-05-24T15:25:46.826Z,6.50
2023-05-24T15:29:10.995Z,5.90
2023-05-24T15:32:38.556Z,6.50
2023-05-24T15:35:59.717Z,6.30
2023-05-24T15:39:46.589Z,6.30
2023-05-24T15:42:36.113Z,7.00
2023-05-24T15:45:44.497Z,7.30
2023-05-24T15:48:26.136Z,7.80
2023-05-24T15:53:49.272Z,6.10
2023-05-24T15:56:58.198Z,5.60
2023-05-24T15:59:50.969Z,6.10
2023-05-24T16:03:20.594Z,5.80
2023-05-24T16:06:39.705Z,6.40
2023-05-24T16:09:59.464Z,6.10
2023-05-24T16:13:19.237Z,6.10
2023-05-24T16:16:47.621Z,5.90
2023-05-24T16:20:08.969Z,6.40
2023-05-24T16:23:41.452Z,6.30
2023-05-24T16:27:04.640Z,5.90
2023-05-24T16:30:16.497Z,6.20
2023-05-24T16:33:28.821Z,5.80
2023-05-24T16:36:25.065Z,6.30
2023-05-24T16:39:07.700Z,6.90
2023-05-24T16:41:41.853Z,7.40
2023-05-24T16:44:34.341Z,7.30
2023-05-24T16:47:40.589Z,7.80
2023-05-24T16:50:54.993Z,6.90
2023-05-24T16:54:04.062Z,7.20
2023-05-24T16:57:33.579Z,8.10
2023-05-24T17:01:08.428Z,8.30
2023-05-24T17:04:40.387Z,9.10
2023-05-24T17:08:11.464Z,10.50
2023-05-24T17:11:41.585Z,11.60
2023-05-24T17:15:11.674Z,11.00
2023-05-24T17:18:44.655Z,11.50
2023-05-24T17:22:08.148Z,11.00
2023-05-24T17:25:26.258Z,11.20
2023-05-24T17:28:46.508Z,11.70
2023-05-24T17:32:10.582Z,12.50
2023-05-24T17:34:53.582Z,12.30
2023-05-24T17:37:57.531Z,11.90
2023-05-24T17:44:40.688Z,11.90
2023-05-24T17:47:58.414Z,11.20
2023-05-24T17:51:13.500Z,11.60
2023-05-24T17:57:40.802Z,10.90
2023-05-24T18:01:14.038Z,11.30
2023-05-24T18:04:04.728Z,11.30
2023-05-24T18:39:26.871Z,10.40
2023-05-24T18:42:04.635Z,11.00
2023-05-24T18:44:38.262Z,10.60
2023-05-24T18:47:15.629Z,10.40
2023-05-24T18:49:54.873Z,10.20
2023-05-24T18:52:25.774Z,9.80
2023-05-24T18:55:02.125Z,11.10
2023-05-24T18:57:35.638Z,11.70
2023-05-24T19:00:12.985Z,10.70
2023-05-24T19:02:49.317Z,10.60
2023-05-24T19:05:23.253Z,11.20
2023-05-24T19:07:56.000Z,10.00
2023-05-24T19:10:27.111Z,9.70
2023-05-24T19:12:58.971Z,10.70
2023-05-24T19:15:46.270Z,10.70
2023-05-24T19:18:22.219Z,10.80
2023-05-24T19:20:59.201Z,11.80
2023-05-24T19:23:31.118Z,11.20
2023-05-24T19:26:01.552Z,11.70
2023-05-24T19:28:34.250Z,12.30
2023-05-24T19:31:09.367Z,11.00
2023-05-24T19:33:48.762Z,12.00
2023-05-24T19:36:28.786Z,12.40
2023-05-24T19:39:04.465Z,12.80
2023-05-24T19:41:41.419Z,12.90
2023-05-24T19:44:20.978Z,12.50
2023-05-24T19:46:58.013Z,11.60
2023-05-24T19:49:32.502Z,12.20
2023-05-24T19:52:03.400Z,11.80
2023-05-24T19:54:38.374Z,12.40
2023-05-24T19:57:11.270Z,12.80
2023-05-24T19:59:45.033Z,13.20
2023-05-24T20:02:19.276Z,12.40
2023-05-24T20:04:53.372Z,13.40
2023-05-24T20:07:28.113Z,12.70
2023-05-24T20:10:07.985Z,12.80
2023-05-24T20:12:39.607Z,12.10
2023-05-24T20:15:17.075Z,12.90
2023-05-24T20:17:47.654Z,13.00
2023-05-24T20:20:18.476Z,13.20
2023-05-24T20:22:55.271Z,12.80
2023-05-24T20:25:30.222Z,12.80
2023-05-24T20:28:02.837Z,13.70
2023-05-24T20:30:43.155Z,13.80
2023-05-24T20:41:38.514Z,13.40
